sensor_id;sensor_type;location;lat;lon;timestamp;pressure;altitude;pressure_sealevel;temperature;humidity
74045;BME280;62389;51.412;5.436;2023-02-28T00:00:26;102967.72;;;0.94;66.04
74045;BME280;62389;51.412;5.436;2023-02-28T00:02:52;102967.69;;;0.92;65.92
74045;BME280;62389;51.412;5.436;2023-02-28T00:05:19;102965.97;;;0.93;66.00
74045;BME280;62389;51.412;5.436;2023-02-28T00:07:45;102966.75;;;0.90;66.41
74045;BME280;62389;51.412;5.436;2023-02-28T00:10:14;102971.00;;;0.88;66.07
74045;BME280;62389;51.412;5.436;2023-02-28T00:12:39;102968.38;;;0.87;66.58
74045;BME280;62389;51.412;5.436;2023-02-28T00:15:07;102971.72;;;0.84;66.20
74045;BME280;62389;51.412;5.436;2023-02-28T00:17:33;102970.09;;;0.86;66.03
74045;BME280;62389;51.412;5.436;2023-02-28T00:19:58;102971.78;;;0.86;66.22
74045;BME280;62389;51.412;5.436;2023-02-28T00:22:38;102976.00;;;0.84;67.11
74045;BME280;62389;51.412;5.436;2023-02-28T00:25:04;102965.50;;;0.77;66.14
74045;BME280;62389;51.412;5.436;2023-02-28T00:27:30;102973.97;;;0.73;67.09
74045;BME280;62389;51.412;5.436;2023-02-28T00:29:55;102974.63;;;0.66;67.44
74045;BME280;62389;51.412;5.436;2023-02-28T00:32:21;102967.47;;;0.58;67.32
74045;BME280;62389;51.412;5.436;2023-02-28T00:34:46;102976.78;;;0.54;67.18
74045;BME280;62389;51.412;5.436;2023-02-28T00:37:12;102972.47;;;0.53;67.45
74045;BME280;62389;51.412;5.436;2023-02-28T00:39:38;102973.16;;;0.47;67.80
74045;BME280;62389;51.412;5.436;2023-02-28T00:42:04;102984.09;;;0.40;68.28
74045;BME280;62389;51.412;5.436;2023-02-28T00:44:31;102973.69;;;0.37;68.51
74045;BME280;62389;51.412;5.436;2023-02-28T00:46:57;102983.06;;;0.35;68.14
74045;BME280;62389;51.412;5.436;2023-02-28T00:49:23;102976.97;;;0.33;68.01
74045;BME280;62389;51.412;5.436;2023-02-28T00:51:49;102978.63;;;0.31;68.80
74045;BME280;62389;51.412;5.436;2023-02-28T00:54:15;102973.50;;;0.31;68.26
74045;BME280;62389;51.412;5.436;2023-02-28T00:56:40;102981.09;;;0.28;68.87
74045;BME280;62389;51.412;5.436;2023-02-28T00:59:06;102980.19;;;0.26;68.14
74045;BME280;62389;51.412;5.436;2023-02-28T01:01:31;102978.41;;;0.25;68.57
74045;BME280;62389;51.412;5.436;2023-02-28T01:03:57;102984.41;;;0.24;68.91
74045;BME280;62389;51.412;5.436;2023-02-28T01:06:22;102980.13;;;0.24;68.52
74045;BME280;62389;51.412;5.436;2023-02-28T01:08:48;102985.38;;;0.28;68.54
74045;BME280;62389;51.412;5.436;2023-02-28T01:11:16;102983.72;;;0.30;68.72
74045;BME280;62389;51.412;5.436;2023-02-28T01:13:42;102987.28;;;0.33;65.67
74045;BME280;62389;51.412;5.436;2023-02-28T01:16:08;102993.28;;;0.34;67.43
74045;BME280;62389;51.412;5.436;2023-02-28T01:18:33;102989.88;;;0.35;67.58
74045;BME280;62389;51.412;5.436;2023-02-28T01:21:03;102987.38;;;0.36;67.65
74045;BME280;62389;51.412;5.436;2023-02-28T01:23:29;102985.72;;;0.38;67.76
74045;BME280;62389;51.412;5.436;2023-02-28T01:25:54;102991.81;;;0.40;67.97
74045;BME280;62389;51.412;5.436;2023-02-28T01:28:20;102991.81;;;0.40;68.03
74045;BME280;62389;51.412;5.436;2023-02-28T01:30:50;102996.06;;;0.40;67.75
74045;BME280;62389;51.412;5.436;2023-02-28T01:33:15;102992.63;;;0.39;68.11
74045;BME280;62389;51.412;5.436;2023-02-28T01:35:41;102996.91;;;0.39;67.77
74045;BME280;62389;51.412;5.436;2023-02-28T01:38:06;102994.28;;;0.37;67.82
74045;BME280;62389;51.412;5.436;2023-02-28T01:40:32;102997.69;;;0.36;67.78
74045;BME280;62389;51.412;5.436;2023-02-28T01:42:57;102988.22;;;0.35;67.87
74045;BME280;62389;51.412;5.436;2023-02-28T01:45:28;102986.44;;;0.34;67.84
74045;BME280;62389;51.412;5.436;2023-02-28T01:48:05;102988.97;;;0.33;68.05
74045;BME280;62389;51.412;5.436;2023-02-28T01:50:38;102985.53;;;0.32;68.02
74045;BME280;62389;51.412;5.436;2023-02-28T01:53:06;102979.44;;;0.30;68.13
74045;BME280;62389;51.412;5.436;2023-02-28T01:55:33;102983.72;;;0.30;68.18
74045;BME280;62389;51.412;5.436;2023-02-28T01:58:01;102978.53;;;0.28;68.07
74045;BME280;62389;51.412;5.436;2023-02-28T02:00:28;102968.19;;;0.27;68.60
74045;BME280;62389;51.412;5.436;2023-02-28T02:02:57;102969.03;;;0.25;68.27
74045;BME280;62389;51.412;5.436;2023-02-28T02:05:29;102971.59;;;0.25;68.11
74045;BME280;62389;51.412;5.436;2023-02-28T02:08:05;102958.66;;;0.24;68.20
74045;BME280;62389;51.412;5.436;2023-02-28T02:10:43;102960.31;;;0.22;68.29
74045;BME280;62389;51.412;5.436;2023-02-28T02:13:36;102961.06;;;0.19;67.60
74045;BME280;62389;51.412;5.436;2023-02-28T02:29:48;102943.66;;;0.11;68.36
74045;BME280;62389;51.412;5.436;2023-02-28T02:32:34;102941.88;;;0.10;68.72
74045;BME280;62389;51.412;5.436;2023-02-28T02:35:26;102937.56;;;0.09;68.29
74045;BME280;62389;51.412;5.436;2023-02-28T02:38:14;102940.97;;;0.08;68.44
74045;BME280;62389;51.412;5.436;2023-02-28T02:40:52;102936.66;;;0.07;68.98
74045;BME280;62389;51.412;5.436;2023-02-28T02:43:24;102941.81;;;0.07;69.02
74045;BME280;62389;51.412;5.436;2023-02-28T02:46:04;102943.44;;;0.05;68.23
74045;BME280;62389;51.412;5.436;2023-02-28T02:48:34;102942.50;;;0.03;68.71
74045;BME280;62389;51.412;5.436;2023-02-28T02:51:04;102945.88;;;0.00;68.90
74045;BME280;62389;51.412;5.436;2023-02-28T02:53:41;102944.94;;;-0.02;69.07
74045;BME280;62389;51.412;5.436;2023-02-28T02:56:08;102938.00;;;-0.05;69.28
74045;BME280;62389;51.412;5.436;2023-02-28T02:58:38;102958.47;;;-0.08;68.90
74045;BME280;62389;51.412;5.436;2023-02-28T03:01:08;102957.56;;;-0.10;69.44
74045;BME280;62389;51.412;5.436;2023-02-28T03:03:36;102948.88;;;-0.12;69.65
74045;BME280;62389;51.412;5.436;2023-02-28T03:06:02;102950.59;;;-0.12;70.24
74045;BME280;62389;51.412;5.436;2023-02-28T03:08:31;102958.16;;;-0.17;70.21
74045;BME280;62389;51.412;5.436;2023-02-28T03:11:00;102951.97;;;-0.22;70.08
74045;BME280;62389;51.412;5.436;2023-02-28T03:13:44;102957.94;;;-0.23;69.24
74045;BME280;62389;51.412;5.436;2023-02-28T03:21:51;102952.91;;;-0.20;69.74
74045;BME280;62389;51.412;5.436;2023-02-28T03:27:15;102953.94;;;-0.15;70.40
74045;BME280;62389;51.412;5.436;2023-02-28T03:30:14;102947.16;;;-0.13;69.93
74045;BME280;62389;51.412;5.436;2023-02-28T03:35:23;102938.81;;;-0.06;69.43
74045;BME280;62389;51.412;5.436;2023-02-28T03:37:54;102946.63;;;-0.03;69.18
74045;BME280;62389;51.412;5.436;2023-02-28T03:40:25;102939.03;;;0.01;69.60
74045;BME280;62389;51.412;5.436;2023-02-28T03:42:57;102945.09;;;0.03;69.50
74045;BME280;62389;51.412;5.436;2023-02-28T03:45:26;102948.56;;;0.05;69.25
74045;BME280;62389;51.412;5.436;2023-02-28T03:47:56;102943.53;;;0.08;69.25
74045;BME280;62389;51.412;5.436;2023-02-28T03:50:31;102949.59;;;0.10;68.97
74045;BME280;62389;51.412;5.436;2023-02-28T03:53:30;102945.41;;;0.12;68.63
74045;BME280;62389;51.412;5.436;2023-02-28T03:56:19;102944.59;;;0.14;68.88
74045;BME280;62389;51.412;5.436;2023-02-28T03:58:55;102946.38;;;0.15;69.14
74045;BME280;62389;51.412;5.436;2023-02-28T04:01:31;102955.84;;;0.16;69.06
74045;BME280;62389;51.412;5.436;2023-02-28T04:03:59;102955.88;;;0.18;69.12
74045;BME280;62389;51.412;5.436;2023-02-28T04:06:24;102958.50;;;0.19;69.20
74045;BME280;62389;51.412;5.436;2023-02-28T04:08:50;102950.03;;;0.22;68.98
74045;BME280;62389;51.412;5.436;2023-02-28T04:13:44;102963.91;;;0.27;69.31
74045;BME280;62389;51.412;5.436;2023-02-28T04:16:09;102957.09;;;0.29;68.84
74045;BME280;62389;51.412;5.436;2023-02-28T04:18:41;102956.28;;;0.30;69.38
74045;BME280;62389;51.412;5.436;2023-02-28T04:21:08;102949.50;;;0.32;68.75
74045;BME280;62389;51.412;5.436;2023-02-28T04:23:34;102959.00;;;0.35;68.77
74045;BME280;62389;51.412;5.436;2023-02-28T04:25:59;102957.34;;;0.35;68.92
74045;BME280;62389;51.412;5.436;2023-02-28T04:28:25;102962.56;;;0.38;68.74
74045;BME280;62389;51.412;5.436;2023-02-28T04:30:58;102957.41;;;0.38;68.82
74045;BME280;62389;51.412;5.436;2023-02-28T04:33:23;102960.94;;;0.40;68.63
74045;BME280;62389;51.412;5.436;2023-02-28T04:35:59;102963.53;;;0.42;68.70
74045;BME280;62389;51.412;5.436;2023-02-28T04:38:25;102961.84;;;0.42;68.63
74045;BME280;62389;51.412;5.436;2023-02-28T04:40:50;102959.25;;;0.42;69.20
74045;BME280;62389;51.412;5.436;2023-02-28T04:43:16;102963.56;;;0.43;68.25
74045;BME280;62389;51.412;5.436;2023-02-28T04:45:41;102969.66;;;0.45;68.63
74045;BME280;62389;51.412;5.436;2023-02-28T04:48:06;102961.03;;;0.45;68.67
74045;BME280;62389;51.412;5.436;2023-02-28T04:50:32;102965.41;;;0.46;69.05
74045;BME280;62389;51.412;5.436;2023-02-28T04:52:57;102961.03;;;0.45;69.41
74045;BME280;62389;51.412;5.436;2023-02-28T04:55:22;102962.75;;;0.44;68.88
74045;BME280;62389;51.412;5.436;2023-02-28T04:57:48;102964.53;;;0.45;69.14
74045;BME280;62389;51.412;5.436;2023-02-28T05:00:13;102960.25;;;0.46;68.46
74045;BME280;62389;51.412;5.436;2023-02-28T05:02:41;102964.53;;;0.45;68.51
74045;BME280;62389;51.412;5.436;2023-02-28T05:05:07;102964.56;;;0.47;69.18
74045;BME280;62389;51.412;5.436;2023-02-28T05:07:32;102967.97;;;0.46;69.03
74045;BME280;62389;51.412;5.436;2023-02-28T05:09:58;102960.28;;;0.47;68.77
74045;BME280;62389;51.412;5.436;2023-02-28T05:12:23;102965.44;;;0.47;69.20
74045;BME280;62389;51.412;5.436;2023-02-28T05:14:48;102967.19;;;0.48;69.08
74045;BME280;62389;51.412;5.436;2023-02-28T05:17:14;102970.69;;;0.50;68.89
74045;BME280;62389;51.412;5.436;2023-02-28T05:19:39;102975.84;;;0.50;69.17
74045;BME280;62389;51.412;5.436;2023-02-28T05:22:04;102975.84;;;0.50;70.26
74045;BME280;62389;51.412;5.436;2023-02-28T05:24:30;102974.13;;;0.51;68.97
74045;BME280;62389;51.412;5.436;2023-02-28T05:26:55;102979.28;;;0.51;68.96
74045;BME280;62389;51.412;5.436;2023-02-28T05:29:21;102977.59;;;0.51;68.56
74045;BME280;62389;51.412;5.436;2023-02-28T05:31:47;102980.16;;;0.51;68.63
74045;BME280;62389;51.412;5.436;2023-02-28T05:34:12;102982.72;;;0.51;68.96
74045;BME280;62389;51.412;5.436;2023-02-28T05:36:40;102985.31;;;0.51;68.53
74045;BME280;62389;51.412;5.436;2023-02-28T05:39:06;102986.19;;;0.52;68.68
74045;BME280;62389;51.412;5.436;2023-02-28T05:41:37;102986.19;;;0.52;69.03
74045;BME280;62389;51.412;5.436;2023-02-28T05:44:03;102988.78;;;0.54;68.59
74045;BME280;62389;51.412;5.436;2023-02-28T05:46:28;102985.34;;;0.53;68.58
74045;BME280;62389;51.412;5.436;2023-02-28T05:48:53;102981.06;;;0.54;68.74
74045;BME280;62389;51.412;5.436;2023-02-28T05:51:20;102987.91;;;0.53;68.90
74045;BME280;62389;51.412;5.436;2023-02-28T05:53:46;102986.19;;;0.52;68.54
74045;BME280;62389;51.412;5.436;2023-02-28T05:56:13;102980.16;;;0.51;68.73
74045;BME280;62389;51.412;5.436;2023-02-28T05:58:38;102987.00;;;0.51;68.56
74045;BME280;62389;51.412;5.436;2023-02-28T06:01:34;102986.13;;;0.50;68.18
74045;BME280;62389;51.412;5.436;2023-02-28T06:04:00;102986.03;;;0.47;69.97
74045;BME280;62389;51.412;5.436;2023-02-28T06:06:26;102981.63;;;0.45;69.15
74045;BME280;62389;51.412;5.436;2023-02-28T06:08:51;102989.31;;;0.43;68.24
74045;BME280;62389;51.412;5.436;2023-02-28T06:11:16;102991.91;;;0.43;68.43
74045;BME280;62389;51.412;5.436;2023-02-28T06:13:42;102991.00;;;0.41;68.55
74045;BME280;62389;51.412;5.436;2023-02-28T06:16:10;102994.41;;;0.40;68.69
74045;BME280;62389;51.412;5.436;2023-02-28T06:18:36;102993.56;;;0.41;70.07
74045;BME280;62389;51.412;5.436;2023-02-28T06:21:01;102992.63;;;0.39;70.47
74045;BME280;62389;51.412;5.436;2023-02-28T06:23:27;102997.72;;;0.38;69.20
74045;BME280;62389;51.412;5.436;2023-02-28T06:25:52;102995.97;;;0.37;69.55
74045;BME280;62389;51.412;5.436;2023-02-28T06:28:18;102999.31;;;0.34;69.39
74045;BME280;62389;51.412;5.436;2023-02-28T06:30:43;103002.72;;;0.33;68.41
74045;BME280;62389;51.412;5.436;2023-02-28T06:33:09;103002.84;;;0.36;68.31
74045;BME280;62389;51.412;5.436;2023-02-28T06:35:35;103000.41;;;0.41;68.31
74045;BME280;62389;51.412;5.436;2023-02-28T06:38:00;103005.66;;;0.44;68.05
74045;BME280;62389;51.412;5.436;2023-02-28T06:40:26;103010.03;;;0.46;68.42
74045;BME280;62389;51.412;5.436;2023-02-28T06:42:51;103010.97;;;0.50;68.27
74045;BME280;62389;51.412;5.436;2023-02-28T06:45:17;103014.50;;;0.52;68.46
74045;BME280;62389;51.412;5.436;2023-02-28T06:47:43;103006.97;;;0.58;67.69
74045;BME280;62389;51.412;5.436;2023-02-28T06:50:12;103008.81;;;0.62;67.40
74045;BME280;62389;51.412;5.436;2023-02-28T06:52:38;103005.53;;;0.66;66.91
74045;BME280;62389;51.412;5.436;2023-02-28T06:55:05;103012.53;;;0.70;66.63
74045;BME280;62389;51.412;5.436;2023-02-28T06:57:33;103012.66;;;0.75;66.66
74045;BME280;62389;51.412;5.436;2023-02-28T06:59:59;103012.75;;;0.78;66.62
74045;BME280;62389;51.412;5.436;2023-02-28T07:02:26;103020.59;;;0.81;66.54
74045;BME280;62389;51.412;5.436;2023-02-28T07:04:51;103016.31;;;0.82;65.35
74045;BME280;62389;51.412;5.436;2023-02-28T07:07:17;103012.94;;;0.84;64.99
74045;BME280;62389;51.412;5.436;2023-02-28T07:09:42;103023.31;;;0.86;64.60
74045;BME280;62389;51.412;5.436;2023-02-28T07:12:07;103029.41;;;0.89;63.81
74045;BME280;62389;51.412;5.436;2023-02-28T07:14:33;103024.41;;;0.94;64.69
74045;BME280;62389;51.412;5.436;2023-02-28T07:16:58;103035.84;;;1.02;64.05
74045;BME280;62389;51.412;5.436;2023-02-28T07:19:24;103037.91;;;1.14;64.01
74045;BME280;62389;51.412;5.436;2023-02-28T07:21:49;103040.81;;;1.24;63.25
74045;BME280;62389;51.412;5.436;2023-02-28T07:24:14;103034.19;;;1.33;63.13
74045;BME280;62389;51.412;5.436;2023-02-28T07:26:41;103033.63;;;1.43;63.13
74045;BME280;62389;51.412;5.436;2023-02-28T07:29:06;103041.00;;;1.61;62.63
74045;BME280;62389;51.412;5.436;2023-02-28T07:31:32;103036.53;;;1.85;62.27
74045;BME280;62389;51.412;5.436;2023-02-28T07:33:57;103034.56;;;2.08;60.78
74045;BME280;62389;51.412;5.436;2023-02-28T07:36:23;103035.84;;;2.24;60.29
74045;BME280;62389;51.412;5.436;2023-02-28T07:38:49;103031.94;;;2.40;59.32
74045;BME280;62389;51.412;5.436;2023-02-28T07:41:19;103033.56;;;2.71;59.31
74045;BME280;62389;51.412;5.436;2023-02-28T07:43:45;103037.03;;;3.09;57.89
74045;BME280;62389;51.412;5.436;2023-02-28T07:46:12;103037.06;;;3.51;57.31
74045;BME280;62389;51.412;5.436;2023-02-28T07:48:40;103039.34;;;4.25;55.19
74045;BME280;62389;51.412;5.436;2023-02-28T07:51:05;103030.84;;;5.48;51.89
74045;BME280;62389;51.412;5.436;2023-02-28T07:53:31;103034.06;;;7.03;50.32
74045;BME280;62389;51.412;5.436;2023-02-28T07:55:58;103028.41;;;8.86;46.62
74045;BME280;62389;51.412;5.436;2023-02-28T07:58:25;103023.81;;;10.84;42.98
74045;BME280;62389;51.412;5.436;2023-02-28T08:00:50;103027.28;;;12.25;48.21
74045;BME280;62389;51.412;5.436;2023-02-28T08:03:18;103023.13;;;13.96;36.80
74045;BME280;62389;51.412;5.436;2023-02-28T08:05:43;103020.72;;;15.23;33.75
74045;BME280;62389;51.412;5.436;2023-02-28T08:08:09;103013.94;;;16.30;30.39
74045;BME280;62389;51.412;5.436;2023-02-28T08:10:34;103020.66;;;17.15;28.73
74045;BME280;62389;51.412;5.436;2023-02-28T08:13:00;103013.78;;;17.58;28.28
74045;BME280;62389;51.412;5.436;2023-02-28T08:15:26;103020.53;;;17.65;27.30
74045;BME280;62389;51.412;5.436;2023-02-28T08:17:51;103010.38;;;17.78;28.17
74045;BME280;62389;51.412;5.436;2023-02-28T08:20:17;103012.13;;;18.21;26.61
74045;BME280;62389;51.412;5.436;2023-02-28T08:22:42;103006.16;;;18.99;25.11
74045;BME280;62389;51.412;5.436;2023-02-28T08:25:08;103005.81;;;19.65;24.52
74045;BME280;62389;51.412;5.436;2023-02-28T08:27:34;103005.63;;;20.23;23.68
74045;BME280;62389;51.412;5.436;2023-02-28T08:30:00;103006.25;;;20.80;22.64
74045;BME280;62389;51.412;5.436;2023-02-28T08:32:25;102999.09;;;21.31;21.46
74045;BME280;62389;51.412;5.436;2023-02-28T08:34:50;102999.09;;;21.63;20.44
74045;BME280;62389;51.412;5.436;2023-02-28T08:37:16;103003.72;;;21.91;20.96
74045;BME280;62389;51.412;5.436;2023-02-28T08:39:41;102994.38;;;22.30;20.06
74045;BME280;62389;51.412;5.436;2023-02-28T08:42:07;102996.53;;;22.67;19.12
74045;BME280;62389;51.412;5.436;2023-02-28T08:44:32;102996.09;;;23.18;18.58
74045;BME280;62389;51.412;5.436;2023-02-28T08:46:58;102990.09;;;23.29;18.18
74045;BME280;62389;51.412;5.436;2023-02-28T08:49:23;102993.44;;;23.73;17.90
74045;BME280;62389;51.412;5.436;2023-02-28T08:51:48;102990.13;;;23.97;17.87
74045;BME280;62389;51.412;5.436;2023-02-28T08:54:14;102984.38;;;24.03;17.64
74045;BME280;62389;51.412;5.436;2023-02-28T08:56:45;102997.13;;;24.12;17.21
74045;BME280;62389;51.412;5.436;2023-02-28T08:59:11;102994.63;;;24.49;16.07
74045;BME280;62389;51.412;5.436;2023-02-28T09:01:36;102989.72;;;24.94;15.59
74045;BME280;62389;51.412;5.436;2023-02-28T09:04:02;102999.47;;;24.82;14.90
74045;BME280;62389;51.412;5.436;2023-02-28T09:06:28;102999.81;;;24.90;15.21
74045;BME280;62389;51.412;5.436;2023-02-28T09:08:57;102991.34;;;25.09;16.15
74045;BME280;62389;51.412;5.436;2023-02-28T09:11:23;102987.66;;;25.23;15.19
74045;BME280;62389;51.412;5.436;2023-02-28T09:13:49;102984.63;;;25.64;15.58
74045;BME280;62389;51.412;5.436;2023-02-28T09:16:16;102991.91;;;25.99;13.96
74045;BME280;62389;51.412;5.436;2023-02-28T09:18:42;102984.53;;;26.49;14.04
74045;BME280;62389;51.412;5.436;2023-02-28T09:21:13;102989.69;;;26.74;14.15
74045;BME280;62389;51.412;5.436;2023-02-28T09:23:43;102993.75;;;27.14;13.44
74045;BME280;62389;51.412;5.436;2023-02-28T09:26:24;102992.28;;;27.75;13.83
74045;BME280;62389;51.412;5.436;2023-02-28T09:28:50;102985.44;;;27.82;12.62
74045;BME280;62389;51.412;5.436;2023-02-28T09:31:19;102983.84;;;27.80;12.48
74045;BME280;62389;51.412;5.436;2023-02-28T09:33:49;102987.38;;;27.92;12.30
74045;BME280;62389;51.412;5.436;2023-02-28T09:36:15;102980.38;;;27.46;11.88
74045;BME280;62389;51.412;5.436;2023-02-28T09:38:41;102980.03;;;27.39;12.58
74045;BME280;62389;51.412;5.436;2023-02-28T09:41:16;102990.31;;;28.09;13.95
74045;BME280;62389;51.412;5.436;2023-02-28T09:43:46;102989.41;;;28.20;11.99
74045;BME280;62389;51.412;5.436;2023-02-28T09:46:32;102985.22;;;28.27;11.97
74045;BME280;62389;51.412;5.436;2023-02-28T09:49:02;102991.28;;;28.41;12.48
74045;BME280;62389;51.412;5.436;2023-02-28T09:54:03;102976.72;;;27.47;11.63
74045;BME280;62389;51.412;5.436;2023-02-28T09:56:33;102989.75;;;26.50;12.16
74045;BME280;62389;51.412;5.436;2023-02-28T09:59:18;102985.91;;;25.35;14.53
74045;BME280;62389;51.412;5.436;2023-02-28T10:02:13;102985.31;;;25.05;13.70
74045;BME280;62389;51.412;5.436;2023-02-28T10:04:49;102987.47;;;23.70;13.77
74045;BME280;62389;51.412;5.436;2023-02-28T10:07:41;102984.84;;;21.80;15.68
74045;BME280;62389;51.412;5.436;2023-02-28T10:10:06;102993.00;;;20.09;16.40
74045;BME280;62389;51.412;5.436;2023-02-28T10:12:41;102987.88;;;18.93;17.59
74045;BME280;62389;51.412;5.436;2023-02-28T10:15:14;102989.38;;;17.95;18.36
74045;BME280;62389;51.412;5.436;2023-02-28T10:17:43;102991.97;;;17.04;18.45
74045;BME280;62389;51.412;5.436;2023-02-28T10:20:19;102989.56;;;16.22;21.28
74045;BME280;62389;51.412;5.436;2023-02-28T10:22:53;102988.09;;;15.55;20.74
74045;BME280;62389;51.412;5.436;2023-02-28T10:25:26;102991.44;;;15.03;22.72
74045;BME280;62389;51.412;5.436;2023-02-28T10:27:53;102986.66;;;14.52;23.24
74045;BME280;62389;51.412;5.436;2023-02-28T10:30:19;102980.72;;;14.08;24.04
74045;BME280;62389;51.412;5.436;2023-02-28T10:32:50;102984.06;;;13.78;22.96
74045;BME280;62389;51.412;5.436;2023-02-28T10:35:24;102977.59;;;13.54;23.34
74045;BME280;62389;51.412;5.436;2023-02-28T10:37:54;102981.66;;;13.28;24.54
74045;BME280;62389;51.412;5.436;2023-02-28T10:42:55;102980.28;;;12.62;25.64
74045;BME280;62389;51.412;5.436;2023-02-28T10:45:23;102983.72;;;12.64;24.60
74045;BME280;62389;51.412;5.436;2023-02-28T10:47:56;102979.72;;;12.43;24.48
74045;BME280;62389;51.412;5.436;2023-02-28T10:50:29;102982.16;;;12.54;26.24
74045;BME280;62389;51.412;5.436;2023-02-28T10:53:07;102979.53;;;12.56;26.81
74045;BME280;62389;51.412;5.436;2023-02-28T10:55:33;102978.59;;;12.58;25.21
74045;BME280;62389;51.412;5.436;2023-02-28T10:57:59;102974.06;;;12.66;23.39
74045;BME280;62389;51.412;5.436;2023-02-28T11:00:25;102968.66;;;12.74;23.70
74045;BME280;62389;51.412;5.436;2023-02-28T11:02:56;102974.34;;;12.98;24.36
74045;BME280;62389;51.412;5.436;2023-02-28T11:05:31;102965.88;;;13.28;24.43
74045;BME280;62389;51.412;5.436;2023-02-28T11:08:10;102956.94;;;13.35;24.24
74045;BME280;62389;51.412;5.436;2023-02-28T11:10:36;102958.72;;;13.36;24.66
74045;BME280;62389;51.412;5.436;2023-02-28T11:13:02;102951.81;;;13.31;23.98
74045;BME280;62389;51.412;5.436;2023-02-28T11:15:30;102952.22;;;13.09;24.80
74045;BME280;62389;51.412;5.436;2023-02-28T11:20:38;102962.47;;;12.78;25.11
74045;BME280;62389;51.412;5.436;2023-02-28T11:23:04;102960.47;;;12.44;25.10
74045;BME280;62389;51.412;5.436;2023-02-28T11:25:33;102969.81;;;12.10;25.57
74045;BME280;62389;51.412;5.436;2023-02-28T11:28:05;102961.22;;;11.99;25.65
74045;BME280;62389;51.412;5.436;2023-02-28T11:32:57;102956.22;;;11.83;24.71
74045;BME280;62389;51.412;5.436;2023-02-28T11:35:33;102950.34;;;11.64;25.76
74045;BME280;62389;51.412;5.436;2023-02-28T11:38:00;102955.81;;;11.51;26.30
74045;BME280;62389;51.412;5.436;2023-02-28T11:40:38;102952.16;;;11.59;27.66
74045;BME280;62389;51.412;5.436;2023-02-28T11:48:51;102944.47;;;11.49;28.55
74045;BME280;62389;51.412;5.436;2023-02-28T11:51:27;102941.84;;;11.50;26.73
74045;BME280;62389;51.412;5.436;2023-02-28T11:57:37;102940.31;;;11.32;27.60
74045;BME280;62389;51.412;5.436;2023-02-28T12:00:15;102941.97;;;11.41;27.09
74045;BME280;62389;51.412;5.436;2023-02-28T12:03:03;102936.66;;;11.44;26.92
74045;BME280;62389;51.412;5.436;2023-02-28T12:05:44;102926.97;;;11.51;28.39
74045;BME280;62389;51.412;5.436;2023-02-28T12:14:01;102930.56;;;11.44;27.70
74045;BME280;62389;51.412;5.436;2023-02-28T12:16:45;102936.59;;;11.49;26.79
74045;BME280;62389;51.412;5.436;2023-02-28T12:27:26;102920.50;;;11.13;28.55
74045;BME280;62389;51.412;5.436;2023-02-28T12:30:05;102920.47;;;11.16;28.58
74045;BME280;62389;51.412;5.436;2023-02-28T12:32:38;102919.75;;;11.05;28.41
74045;BME280;62389;51.412;5.436;2023-02-28T12:37:42;102911.72;;;11.17;28.94
74045;BME280;62389;51.412;5.436;2023-02-28T12:40:12;102904.56;;;11.28;27.86
74045;BME280;62389;51.412;5.436;2023-02-28T12:42:42;102909.78;;;11.31;28.48
74045;BME280;62389;51.412;5.436;2023-02-28T12:48:03;102895.25;;;11.07;28.33
74045;BME280;62389;51.412;5.436;2023-02-28T12:50:32;102899.59;;;11.10;29.14
74045;BME280;62389;51.412;5.436;2023-02-28T12:53:26;102900.34;;;11.20;28.73
74045;BME280;62389;51.412;5.436;2023-02-28T12:56:14;102893.19;;;11.29;28.18
74045;BME280;62389;51.412;5.436;2023-02-28T12:58:46;102883.31;;;11.50;27.92
74045;BME280;62389;51.412;5.436;2023-02-28T13:01:28;102888.47;;;11.56;29.38
74045;BME280;62389;51.412;5.436;2023-02-28T13:09:32;102882.72;;;11.31;27.50
74045;BME280;62389;51.412;5.436;2023-02-28T13:11:58;102873.03;;;11.34;28.00
74045;BME280;62389;51.412;5.436;2023-02-28T13:14:28;102868.69;;;11.35;29.39
74045;BME280;62389;51.412;5.436;2023-02-28T13:16:58;102866.97;;;11.32;26.98
74045;BME280;62389;51.412;5.436;2023-02-28T13:19:30;102859.28;;;11.20;28.93
74045;BME280;62389;51.412;5.436;2023-02-28T13:21:57;102865.41;;;11.19;27.76
74045;BME280;62389;51.412;5.436;2023-02-28T13:24:37;102865.31;;;11.27;29.23
74045;BME280;62389;51.412;5.436;2023-02-28T13:29:34;102868.19;;;11.07;27.98
74045;BME280;62389;51.412;5.436;2023-02-28T13:34:34;102856.31;;;10.81;28.45
74045;BME280;62389;51.412;5.436;2023-02-28T13:39:50;102850.91;;;10.94;29.15
74045;BME280;62389;51.412;5.436;2023-02-28T13:47:42;102851.72;;;11.00;28.37
74045;BME280;62389;51.412;5.436;2023-02-28T13:50:38;102848.06;;;11.10;28.93
74045;BME280;62389;51.412;5.436;2023-02-28T13:55:51;102843.69;;;11.11;28.54
74045;BME280;62389;51.412;5.436;2023-02-28T13:58:33;102845.53;;;11.04;28.41
74045;BME280;62389;51.412;5.436;2023-02-28T14:01:20;102849.84;;;11.08;28.90
74045;BME280;62389;51.412;5.436;2023-02-28T14:06:33;102844.03;;;10.86;28.13
74045;BME280;62389;51.412;5.436;2023-02-28T14:09:03;102833.78;;;10.68;29.51
74045;BME280;62389;51.412;5.436;2023-02-28T14:11:36;102844.41;;;10.56;28.40
74045;BME280;62389;51.412;5.436;2023-02-28T14:14:03;102837.47;;;10.52;30.87
74045;BME280;62389;51.412;5.436;2023-02-28T14:16:39;102839.28;;;10.47;30.27
74045;BME280;62389;51.412;5.436;2023-02-28T14:19:20;102838.53;;;10.35;29.31
74045;BME280;62389;51.412;5.436;2023-02-28T14:22:04;102840.38;;;10.21;30.63
74045;BME280;62389;51.412;5.436;2023-02-28T14:38:40;102829.44;;;9.84;31.16
74045;BME280;62389;51.412;5.436;2023-02-28T14:41:16;102832.97;;;9.75;30.99
74045;BME280;62389;51.412;5.436;2023-02-28T14:43:56;102824.28;;;9.75;31.74
74045;BME280;62389;51.412;5.436;2023-02-28T14:46:25;102825.22;;;9.63;30.62
74045;BME280;62389;51.412;5.436;2023-02-28T14:48:51;102819.16;;;9.61;30.39
74045;BME280;62389;51.412;5.436;2023-02-28T14:51:21;102826.16;;;9.59;31.81